createdAt,value
2022-08-08T00:00:50.486Z,15.10
2022-08-08T00:02:32.930Z,15.00
2022-08-08T00:05:14.365Z,15.10
2022-08-08T00:08:05.215Z,15.00
2022-08-08T00:10:41.916Z,15.00
2022-08-08T00:14:15.733Z,15.00
2022-08-08T00:16:26.702Z,14.90
2022-08-08T00:19:08.699Z,14.90
2022-08-08T00:21:43.876Z,14.90
2022-08-08T00:24:16.814Z,14.90
2022-08-08T00:26:55.205Z,15.00
2022-08-08T00:29:45.883Z,15.00
2022-08-08T00:32:38.713Z,15.10
2022-08-08T00:35:34.307Z,15.10
2022-08-08T00:38:30.865Z,15.00
2022-08-08T00:41:55.541Z,15.00
2022-08-08T00:44:42.272Z,15.00
2022-08-08T00:48:05.430Z,14.90
2022-08-08T00:50:40.995Z,15.00
2022-08-08T00:54:13.274Z,14.90
2022-08-08T00:57:36.087Z,14.90
2022-08-08T01:00:12.870Z,15.00
2022-08-08T01:04:00.201Z,15.00
2022-08-08T01:06:07.797Z,15.00
2022-08-08T01:08:42.352Z,15.10
2022-08-08T01:11:26.056Z,15.10
2022-08-08T01:14:17.655Z,15.00
2022-08-08T01:17:19.587Z,15.00
2022-08-08T01:20:13.274Z,15.00
2022-08-08T01:22:58.867Z,15.10
2022-08-08T01:25:40.907Z,15.00
2022-08-08T01:29:01.876Z,15.00
2022-08-08T01:32:13.741Z,15.10
2022-08-08T01:34:59.226Z,15.10
2022-08-08T01:38:02.506Z,15.10
2022-08-08T01:40:54.421Z,15.10
2022-08-08T01:43:48.239Z,15.10
2022-08-08T01:46:23.622Z,15.10
2022-08-08T01:49:02.495Z,15.10
2022-08-08T01:52:53.374Z,15.00
2022-08-08T01:56:27.242Z,15.00
2022-08-08T01:58:38.211Z,15.00
2022-08-08T02:01:16.060Z,15.00
2022-08-08T02:03:58.106Z,15.00
2022-08-08T02:06:43.905Z,15.00
2022-08-08T02:10:02.249Z,14.90
2022-08-08T02:12:42.831Z,15.00
2022-08-08T02:15:38.362Z,15.00
2022-08-08T02:18:45.093Z,14.90
2022-08-08T02:21:42.797Z,14.90
2022-08-08T02:24:26.588Z,14.80
2022-08-08T02:27:09.761Z,14.80
2022-08-08T02:30:03.121Z,14.90
2022-08-08T02:32:36.177Z,14.80
2022-08-08T02:35:08.942Z,14.80
2022-08-08T02:38:09.060Z,14.80
2022-08-08T02:40:50.102Z,14.80
2022-08-08T02:44:34.926Z,14.80
2022-08-08T02:47:07.965Z,14.80
2022-08-08T02:49:51.526Z,14.80
2022-08-08T02:52:56.335Z,14.90
2022-08-08T02:55:44.419Z,14.90
2022-08-08T02:58:15.121Z,14.90
2022-08-08T03:01:14.740Z,14.90
2022-08-08T03:05:03.850Z,14.90
2022-08-08T03:07:07.327Z,14.90
2022-08-08T03:10:05.189Z,14.90
2022-08-08T03:13:33.993Z,14.90
2022-08-08T03:16:13.606Z,15.00
2022-08-08T03:19:12.960Z,15.00
2022-08-08T03:21:58.284Z,15.00
2022-08-08T03:24:26.084Z,15.00
2022-08-08T03:27:05.196Z,15.00
2022-08-08T03:29:55.664Z,15.00
2022-08-08T03:32:47.595Z,15.10
2022-08-08T03:35:33.311Z,15.00
2022-08-08T03:38:53.365Z,15.10
2022-08-08T03:40:54.220Z,15.00
2022-08-08T03:43:21.819Z,15.10
2022-08-08T03:46:07.529Z,15.00
2022-08-08T03:49:08.908Z,15.10
2022-08-08T03:51:40.653Z,15.20
2022-08-08T03:54:15.563Z,15.20
2022-08-08T03:56:58.697Z,15.20
2022-08-08T03:59:31.856Z,15.20
2022-08-08T04:02:22.954Z,15.20
2022-08-08T04:04:46.723Z,15.20
2022-08-08T04:07:16.562Z,15.20
2022-08-08T04:10:02.925Z,15.20
2022-08-08T04:12:32.331Z,15.20
2022-08-08T04:14:59.362Z,15.20
2022-08-08T04:17:45.796Z,15.30
2022-08-08T04:20:14.343Z,15.30
2022-08-08T04:22:41.827Z,15.30
2022-08-08T04:25:15.347Z,15.40
2022-08-08T04:28:02.759Z,15.40
2022-08-08T04:30:39.805Z,15.50
2022-08-08T04:33:11.556Z,15.50
2022-08-08T04:35:40.566Z,15.50
2022-08-08T04:38:21.452Z,15.50
2022-08-08T04:40:53.970Z,15.50
2022-08-08T04:43:31.877Z,15.50
2022-08-08T04:46:12.087Z,15.50
2022-08-08T04:48:41.735Z,15.50
2022-08-08T04:51:09.620Z,15.70
2022-08-08T04:54:36.348Z,15.70
2022-08-08T04:56:23.484Z,15.90
2022-08-08T04:58:50.856Z,16.00
2022-08-08T05:01:18.155Z,16.00
2022-08-08T05:04:11.239Z,16.00
2022-08-08T05:06:32.355Z,16.00
2022-08-08T05:09:02.700Z,16.10
2022-08-08T05:11:39.657Z,16.20
2022-08-08T05:14:12.734Z,16.20
2022-08-08T05:16:51.211Z,16.40
2022-08-08T05:20:09.447Z,16.40
2022-08-08T05:22:11.039Z,16.70
2022-08-08T05:24:38.921Z,16.80
2022-08-08T05:27:07.766Z,16.80
2022-08-08T05:29:35.776Z,16.90
2022-08-08T05:32:06.632Z,17.10
2022-08-08T05:34:40.875Z,17.00
2022-08-08T05:37:18.603Z,17.00
2022-08-08T05:39:57.424Z,17.10
2022-08-08T05:42:39.580Z,17.30
2022-08-08T05:45:24.590Z,17.40
2022-08-08T05:48:00.306Z,17.40
2022-08-08T05:50:30.155Z,17.50
2022-08-08T05:53:53.719Z,17.60
2022-08-08T05:56:11.183Z,17.50
2022-08-08T05:58:56.981Z,17.50
2022-08-08T06:01:52.778Z,17.70
2022-08-08T06:04:23.536Z,18.10
2022-08-08T06:07:00.637Z,18.10
2022-08-08T06:10:00.666Z,18.40
2022-08-08T06:12:30.575Z,18.40
2022-08-08T06:15:01.198Z,18.50
2022-08-08T06:17:51.229Z,18.40
2022-08-08T06:20:21.269Z,18.30
2022-08-08T06:22:49.356Z,18.40
2022-08-08T06:25:18.313Z,18.60
2022-08-08T06:27:48.333Z,18.70
2022-08-08T06:30:20.270Z,18.90
2022-08-08T06:32:57.519Z,19.20
2022-08-08T06:36:07.242Z,19.30
2022-08-08T06:38:28.822Z,19.40
2022-08-08T06:41:05.582Z,19.20
2022-08-08T06:43:36.141Z,19.20
2022-08-08T06:46:05.030Z,19.30
2022-08-08T06:48:36.384Z,19.40
2022-08-08T06:51:07.554Z,19.30
2022-08-08T06:53:39.366Z,19.50
2022-08-08T06:56:09.204Z,19.60
2022-08-08T06:58:37.062Z,19.60
2022-08-08T07:02:18.271Z,19.80
2022-08-08T07:04:41.475Z,19.90
2022-08-08T07:07:10.337Z,20.10
2022-08-08T07:09:45.673Z,20.20
2022-08-08T07:12:39.938Z,20.20
2022-08-08T07:15:23.074Z,19.90
2022-08-08T07:18:36.547Z,19.90
2022-08-08T07:20:54.350Z,19.90
2022-08-08T07:24:02.289Z,19.90
2022-08-08T07:26:35.704Z,19.90
2022-08-08T07:29:07.878Z,19.80
2022-08-08T07:31:36.722Z,19.60
2022-08-08T07:34:08.971Z,19.60
2022-08-08T07:36:41.860Z,19.60
2022-08-08T07:39:18.267Z,19.80
2022-08-08T07:41:58.705Z,20.10
2022-08-08T07:44:40.207Z,20.20
2022-08-08T07:47:08.909Z,20.60
2022-08-08T07:49:40.025Z,20.90
2022-08-08T07:52:13.313Z,21.30
2022-08-08T07:55:03.374Z,21.50
2022-08-08T07:57:48.843Z,21.50
2022-08-08T08:00:17.316Z,21.50
2022-08-08T08:03:09.814Z,21.90
2022-08-08T08:05:50.921Z,22.00
2022-08-08T08:08:20.531Z,21.80
2022-08-08T08:10:52.764Z,21.90
2022-08-08T08:14:07.706Z,21.70
2022-08-08T08:16:39.223Z,21.70
2022-08-08T08:19:14.737Z,21.50
2022-08-08T08:21:57.412Z,21.60
2022-08-08T08:24:30.442Z,21.90
2022-08-08T08:26:58.067Z,21.90
2022-08-08T08:29:27.693Z,21.90
2022-08-08T08:31:57.838Z,22.00
2022-08-08T08:34:31.878Z,22.20
2022-08-08T08:36:59.153Z,22.30
2022-08-08T08:40:00.232Z,22.20
2022-08-08T08:42:28.923Z,22.40
2022-08-08T08:45:00.625Z,22.10
2022-08-08T08:47:33.738Z,21.60
2022-08-08T08:50:32.073Z,21.30
2022-08-08T08:53:04.928Z,21.00
2022-08-08T08:55:49.772Z,20.50
2022-08-08T08:58:30.450Z,19.90
2022-08-08T09:01:08.499Z,19.60
2022-08-08T09:03:47.779Z,19.40
2022-08-08T09:06:26.828Z,19.30
2022-08-08T09:09:35.530Z,19.20
2022-08-08T09:12:09.670Z,19.10
2022-08-08T09:14:42.882Z,19.00
2022-08-08T09:17:18.326Z,19.00
2022-08-08T09:21:58.692Z,19.10
2022-08-08T09:22:39.469Z,19.20
2022-08-08T09:25:07.966Z,19.30
2022-08-08T09:27:57.033Z,19.30
2022-08-08T09:30:26.699Z,19.40
2022-08-08T09:33:12.206Z,19.50
2022-08-08T09:35:48.986Z,19.80
2022-08-08T09:38:35.098Z,20.40
2022-08-08T09:41:54.950Z,21.00
2022-08-08T09:44:34.283Z,21.10
2022-08-08T09:48:02.444Z,21.00
2022-08-08T09:50:04.719Z,20.60
2022-08-08T09:52:58.306Z,20.30
2022-08-08T09:55:31.601Z,20.20
2022-08-08T09:58:27.636Z,20.30
2022-08-08T10:01:14.274Z,20.30
2022-08-08T10:04:02.166Z,20.40
2022-08-08T10:06:35.696Z,20.60
2022-08-08T10:09:03.387Z,20.80
2022-08-08T10:12:27.832Z,20.90
2022-08-08T10:14:28.318Z,20.90
2022-08-08T10:17:56.812Z,20.80
2022-08-08T10:20:00.157Z,20.80
2022-08-08T10:22:32.318Z,20.50
2022-08-08T10:25:04.877Z,20.50
2022-08-08T10:27:42.616Z,20.50
2022-08-08T10:30:16.158Z,20.70
2022-08-08T10:33:00.298Z,20.90
2022-08-08T10:36:08.162Z,20.80
2022-08-08T10:38:20.486Z,20.90
2022-08-08T10:40:53.332Z,21.00
2022-08-08T10:43:20.936Z,20.90
2022-08-08T10:45:57.112Z,20.70
2022-08-08T10:48:56.626Z,20.50
2022-08-08T10:51:26.258Z,20.30
2022-08-08T10:53:59.997Z,19.80
2022-08-08T10:56:36.000Z,19.20
2022-08-08T10:59:10.355Z,18.50
2022-08-08T11:01:54.278Z,18.10
2022-08-08T11:04:38.451Z,17.70
2022-08-08T11:07:07.242Z,17.40
2022-08-08T11:09:34.826Z,17.20
2022-08-08T11:12:13.601Z,17.20
2022-08-08T11:14:53.073Z,17.20
2022-08-08T11:17:59.489Z,17.30
2022-08-08T11:20:12.766Z,17.30
2022-08-08T11:22:41.227Z,17.40
2022-08-08T11:25:14.498Z,17.70
2022-08-08T11:27:44.594Z,18.00
2022-08-08T11:30:19.840Z,18.10
2022-08-08T11:32:57.255Z,18.40
2022-08-08T11:35:38.406Z,18.60
2022-08-08T11:38:39.568Z,18.70
2022-08-08T11:41:01.044Z,18.80
2022-08-08T11:43:39.290Z,18.90
2022-08-08T11:46:13.831Z,19.00
2022-08-08T11:48:47.690Z,19.10
2022-08-08T11:51:30.928Z,19.30
2022-08-08T11:54:27.363Z,19.40
2022-08-08T11:56:55.975Z,19.60
2022-08-08T12:00:01.602Z,19.70
2022-08-08T12:02:32.195Z,19.90
2022-08-08T12:05:12.182Z,19.90
2022-08-08T12:07:49.742Z,19.90
2022-08-08T12:10:23.743Z,20.00
2022-08-08T12:13:03.948Z,20.00
2022-08-08T12:15:42.329Z,20.10
2022-08-08T12:18:45.222Z,20.10
2022-08-08T12:21:59.591Z,20.20
2022-08-08T12:24:14.884Z,20.20
2022-08-08T12:26:49.927Z,20.30
2022-08-08T12:29:42.371Z,20.30
2022-08-08T12:32:19.900Z,20.50
2022-08-08T12:35:01.403Z,20.50
2022-08-08T12:37:43.079Z,20.40
2022-08-08T12:40:22.414Z,20.40
2022-08-08T12:42:50.206Z,20.40
2022-08-08T12:45:58.994Z,20.40
2022-08-08T12:48:10.146Z,20.30
2022-08-08T12:50:58.233Z,20.30
2022-08-08T12:53:28.420Z,20.30
2022-08-08T12:56:18.203Z,20.40
2022-08-08T12:58:54.235Z,20.50
2022-08-08T13:01:42.865Z,20.60
2022-08-08T13:04:24.526Z,20.80
2022-08-08T13:07:06.754Z,21.10
2022-08-08T13:09:43.353Z,21.20
2022-08-08T13:12:47.182Z,21.00
2022-08-08T13:15:16.901Z,20.90
2022-08-08T13:17:54.257Z,20.60
2022-08-08T13:20:34.161Z,20.40
2022-08-08T13:23:30.165Z,20.40
2022-08-08T13:26:01.745Z,20.30
2022-08-08T13:28:38.293Z,20.30
2022-08-08T13:31:16.672Z,20.20
2022-08-08T13:33:47.240Z,20.10
2022-08-08T13:36:17.261Z,20.10
2022-08-08T13:38:45.173Z,20.20
2022-08-08T13:41:17.035Z,20.30
2022-08-08T13:43:50.795Z,20.50
2022-08-08T13:46:26.384Z,20.60
2022-08-08T13:50:33.466Z,20.70
2022-08-08T13:51:55.259Z,20.80
2022-08-08T13:54:29.510Z,21.00
2022-08-08T13:57:15.476Z,21.20
2022-08-08T13:59:48.463Z,21.10
2022-08-08T14:02:31.160Z,21.00
2022-08-08T14:05:09.398Z,20.90
2022-08-08T14:07:52.606Z,20.90
2022-08-08T14:10:32.930Z,20.90
2022-08-08T14:13:30.508Z,20.80
2022-08-08T14:16:16.135Z,20.90
2022-08-08T14:19:10.816Z,21.00
2022-08-08T14:21:52.348Z,21.10
2022-08-08T14:24:34.334Z,21.20
2022-08-08T14:27:01.971Z,21.20
2022-08-08T14:29:39.358Z,21.20
2022-08-08T14:32:14.424Z,21.10
2022-08-08T14:34:52.836Z,20.90
2022-08-08T14:37:21.543Z,21.00
2022-08-08T14:40:05.663Z,20.90
2022-08-08T14:42:55.132Z,20.80
2022-08-08T14:45:33.542Z,20.70
2022-08-08T14:48:13.237Z,20.70
2022-08-08T14:50:47.137Z,20.80
2022-08-08T14:53:15.381Z,20.80
2022-08-08T14:55:43.400Z,20.80
2022-08-08T14:58:16.193Z,20.90
2022-08-08T15:00:48.313Z,20.90
2022-08-08T15:03:16.899Z,20.80
2022-08-08T15:05:53.194Z,20.70
2022-08-08T15:08:35.280Z,20.90
2022-08-08T15:11:07.486Z,20.90
2022-08-08T15:13:41.078Z,20.90
2022-08-08T15:16:24.333Z,21.00
2022-08-08T15:18:51.948Z,20.90
2022-08-08T15:21:20.902Z,21.00
2022-08-08T15:23:51.141Z,21.00
2022-08-08T15:26:20.415Z,20.90
2022-08-08T15:28:52.946Z,20.80
2022-08-08T15:31:55.757Z,20.80
2022-08-08T15:34:08.605Z,20.90
2022-08-08T15:36:47.574Z,20.90
2022-08-08T15:39:15.323Z,20.90
2022-08-08T15:41:44.062Z,20.80
2022-08-08T15:44:13.833Z,20.60
2022-08-08T15:46:45.681Z,20.50
2022-08-08T15:49:20.643Z,20.40
2022-08-08T15:51:54.686Z,20.30
2022-08-08T15:54:38.556Z,20.20
2022-08-08T15:57:09.009Z,20.20
2022-08-08T16:00:06.848Z,20.30
2022-08-08T16:02:30.896Z,20.40
2022-08-08T16:05:00.188Z,20.50
2022-08-08T16:07:50.777Z,20.50
2022-08-08T16:13:15.666Z,20.60
2022-08-08T16:13:29.206Z,20.60
2022-08-08T16:15:59.285Z,20.60
2022-08-08T16:18:27.965Z,20.60
2022-08-08T16:21:00.339Z,20.60
2022-08-08T16:23:32.282Z,20.40
2022-08-08T16:26:03.985Z,20.50
2022-08-08T16:28:35.751Z,20.50
2022-08-08T16:31:07.825Z,20.30
2022-08-08T16:33:39.332Z,20.20
2022-08-08T16:36:15.631Z,20.10
2022-08-08T16:38:46.482Z,20.00
2022-08-08T16:41:20.491Z,20.00
2022-08-08T16:43:50.951Z,20.00
2022-08-08T16:46:39.250Z,20.00
2022-08-08T16:49:09.399Z,19.90
2022-08-08T16:55:05.349Z,19.80
2022-08-08T16:55:06.678Z,19.80
2022-08-08T16:57:27.904Z,19.70
2022-08-08T17:00:06.512Z,19.60
2022-08-08T17:02:44.237Z,19.60
2022-08-08T17:05:13.638Z,19.60
2022-08-08T17:07:42.025Z,19.70
2022-08-08T17:10:16.883Z,19.60
2022-08-08T17:12:52.859Z,19.50
2022-08-08T17:15:21.268Z,19.50
2022-08-08T17:18:02.463Z,19.50
2022-08-08T17:20:32.730Z,19.40
2022-08-08T17:23:18.177Z,19.40
2022-08-08T17:25:52.420Z,19.30
2022-08-08T17:28:31.534Z,19.20
2022-08-08T17:31:39.316Z,19.10
2022-08-08T17:34:48.250Z,19.00
2022-08-08T17:37:00.114Z,19.00
2022-08-08T17:40:04.695Z,19.00
2022-08-08T17:42:18.106Z,18.90
2022-08-08T17:44:46.490Z,18.90
2022-08-08T17:47:23.975Z,18.80
2022-08-08T17:50:01.103Z,18.90
2022-08-08T17:52:35.126Z,18.80
2022-08-08T17:55:05.587Z,18.80
2022-08-08T17:57:50.239Z,18.80
2022-08-08T18:00:19.637Z,18.80
2022-08-08T18:02:52.550Z,18.70
2022-08-08T18:05:49.771Z,18.60
2022-08-08T18:08:25.034Z,18.50
2022-08-08T18:11:14.949Z,18.40
2022-08-08T18:13:43.982Z,18.40
2022-08-08T18:16:12.806Z,18.40
2022-08-08T18:18:52.978Z,18.40
2022-08-08T18:21:25.086Z,18.30
2022-08-08T18:24:03.769Z,18.30
2022-08-08T18:26:33.495Z,18.20
2022-08-08T18:29:00.835Z,18.20
2022-08-08T18:31:28.808Z,18.20
2022-08-08T18:34:11.178Z,18.10
2022-08-08T18:36:44.550Z,18.10
2022-08-08T18:39:27.298Z,18.10
2022-08-08T18:41:58.072Z,18.00
2022-08-08T18:44:33.003Z,18.10
2022-08-08T18:47:02.443Z,18.00
2022-08-08T18:49:32.510Z,18.00
2022-08-08T18:52:16.922Z,17.90
2022-08-08T18:54:46.071Z,17.80
2022-08-08T18:57:27.308Z,17.70
2022-08-08T18:59:54.207Z,17.70
2022-08-08T19:02:27.995Z,17.60
2022-08-08T19:04:56.590Z,17.60
2022-08-08T19:07:25.780Z,17.50
2022-08-08T19:10:14.151Z,17.40
2022-08-08T19:12:44.319Z,17.40
2022-08-08T19:15:21.606Z,17.40
2022-08-08T19:18:32.662Z,17.30
2022-08-08T19:20:42.937Z,17.30
2022-08-08T19:23:13.568Z,17.20
2022-08-08T19:26:20.060Z,17.20
2022-08-08T19:28:28.984Z,17.20
2022-08-08T19:31:03.841Z,17.20
2022-08-08T19:33:51.804Z,17.10
2022-08-08T19:36:25.064Z,17.10
2022-08-08T19:38:55.282Z,17.10
2022-08-08T19:41:25.629Z,17.10
2022-08-08T19:44:02.833Z,17.10
2022-08-08T19:46:33.200Z,17.10
2022-08-08T19:49:00.773Z,17.10
2022-08-08T19:51:34.582Z,17.00
2022-08-08T19:54:06.916Z,17.00
2022-08-08T19:56:40.287Z,17.00
2022-08-08T19:59:12.834Z,16.90
2022-08-08T20:02:01.626Z,16.80
2022-08-08T20:04:30.815Z,16.70
2022-08-08T20:07:03.603Z,16.70
2022-08-08T20:09:55.312Z,16.70
2022-08-08T20:12:32.731Z,16.70
2022-08-08T20:15:14.881Z,16.80
2022-08-08T20:17:46.514Z,16.80
2022-08-08T20:20:19.221Z,16.80
2022-08-08T20:22:52.461Z,16.80
2022-08-08T20:25:24.652Z,16.80
2022-08-08T20:27:54.411Z,16.80
2022-08-08T20:30:38.989Z,16.80
2022-08-08T20:33:19.888Z,16.90
2022-08-08T20:35:58.931Z,16.90
2022-08-08T20:38:32.860Z,16.90
2022-08-08T20:41:05.813Z,16.90
2022-08-08T20:43:48.087Z,17.00
2022-08-08T20:46:17.374Z,16.90
2022-08-08T20:48:47.158Z,16.90
2022-08-08T20:51:15.018Z,16.80
2022-08-08T20:53:59.205Z,16.90
2022-08-08T20:56:35.167Z,16.80
2022-08-08T20:59:09.057Z,16.80
2022-08-08T21:01:44.395Z,16.80
2022-08-08T21:04:27.337Z,16.80
2022-08-08T21:06:55.663Z,16.90
2022-08-08T21:09:23.183Z,16.80
2022-08-08T21:12:03.425Z,16.80
2022-08-08T21:14:34.468Z,16.80
2022-08-08T21:17:06.092Z,16.80
2022-08-08T21:19:45.324Z,16.80
2022-08-08T21:22:14.596Z,16.70
2022-08-08T21:24:53.000Z,16.80
2022-08-08T21:28:06.362Z,16.80
2022-08-08T21:30:19.144Z,16.80
2022-08-08T21:32:52.259Z,16.80
2022-08-08T21:36:14.268Z,16.70
2022-08-08T21:38:16.068Z,16.70
2022-08-08T21:40:54.710Z,16.70
2022-08-08T21:43:22.415Z,16.70
2022-08-08T21:48:05.021Z,16.60
2022-08-08T21:48:44.422Z,16.60
2022-08-08T21:51:16.192Z,16.60
2022-08-08T21:54:32.001Z,16.70
2022-08-08T21:56:43.484Z,16.70
2022-08-08T21:59:11.192Z,16.70
2022-08-08T22:01:52.213Z,16.60
2022-08-08T22:04:24.828Z,16.60
2022-08-08T22:06:53.140Z,16.60
2022-08-08T22:09:20.557Z,16.50
2022-08-08T22:12:08.779Z,16.50
2022-08-08T22:14:37.353Z,16.40
2022-08-08T22:17:04.381Z,16.30
2022-08-08T22:20:11.021Z,16.30
2022-08-08T22:22:18.740Z,16.30
2022-08-08T22:24:46.028Z,16.30
2022-08-08T22:27:15.002Z,16.30
2022-08-08T22:29:58.839Z,16.20
2022-08-08T22:32:29.528Z,16.20
2022-08-08T22:34:56.606Z,16.10
2022-08-08T22:37:49.658Z,16.20
2022-08-08T22:40:16.958Z,16.10
2022-08-08T22:42:45.572Z,16.10
2022-08-08T22:45:14.684Z,16.10
2022-08-08T22:47:48.995Z,16.10
2022-08-08T22:50:27.227Z,16.00
2022-08-08T22:54:32.305Z,16.00
2022-08-08T22:55:58.221Z,15.90
2022-08-08T22:58:34.663Z,15.80
2022-08-08T23:02:01.212Z,15.80
2022-08-08T23:03:56.915Z,15.80
2022-08-08T23:06:27.397Z,15.80
2022-08-08T23:08:58.867Z,15.80
2022-08-08T23:12:27.876Z,15.80
2022-08-08T23:14:20.530Z,15.80
2022-08-08T23:16:57.975Z,15.80
2022-08-08T23:19:27.483Z,15.80
2022-08-08T23:21:58.099Z,15.80
2022-08-08T23:24:25.026Z,15.70
2022-08-08T23:26:56.159Z,15.70
2022-08-08T23:29:29.667Z,15.70
2022-08-08T23:31:57.014Z,15.70
2022-08-08T23:34:24.062Z,15.60
2022-08-08T23:36:57.908Z,15.60
2022-08-08T23:39:32.338Z,15.70
2022-08-08T23:42:09.329Z,15.60
2022-08-08T23:44:39.727Z,15.60
2022-08-08T23:49:07.543Z,15.60
2022-08-08T23:50:02.852Z,15.70
2022-08-08T23:52:32.998Z,15.70
2022-08-08T23:55:14.279Z,15.70
2022-08-08T23:57:52.426Z,15.70
